Weather at Ozark Skies Airpark

Public forecast

Using degrees Fahrenheit for public forecast. Weather courtesy of forecast.io.

Closest aviation weather report (METAR) to Ozark Skies Airpark

Closest report is Boone County Airport, 25.5 nm (47.3 km) NE. Retrieved 2022/07/04 05:53 UTC (18 minutes ago):

KHRO 040553Z AUTO 17003KT 10SM CLR 24/21 A3008 RMK AO2 SLP167 T02440211 10306 20244 403330217 50004

Closest aviation forecast (TAF) to Ozark Skies Airpark

Closest forecast is Boone County Airport, 25.5 nm (47.3 km) NE. Retrieved 2022/07/04 06:28 UTC (0 seconds ago):

TAF KHRO 040526Z 0406/0506 14004KT P6SM SCT250 FM041500 19005KT P6SM SCT050 FM050000 18004KT P6SM SCT250